Terminal Aerodrome Forecast
Issued by NWS

Home | Current Version | Previous Version | Text Only | Print | Product List | Glossary On
Versions: 1 2 3 4 5 6 7 8 9 10 11 12 13 14 15 16 17 18 19 20 21 22 23 24 25 26 27 28 29 30 31 32 33 34 35 36 37
000
FTUS45 KBOI 271120
TAFBKE
TAF
KBKE 271120Z 2712/2812 00000KT 3SM BR SCT002
      TEMPO 2712/2713 1SM BR
     FM271300 00000KT 3/4SM BR VV002
      TEMPO 2715/2716 2SM BR SCT002
     FM271600 12009KT P6SM FEW250
     FM280300 VRB05KT P6SM SCT100 OVC200
     FM280900 31015KT P6SM -SHRA OVC050=

USA.gov is the U.S. government's official web portal to all federal, state and local government web resources and services.